createdAt,value
2022-10-15T00:01:26.559Z,16.45
2022-10-15T00:02:28.955Z,13.13
2022-10-15T00:03:31.115Z,13.65
2022-10-15T00:04:34.467Z,13.35
2022-10-15T00:05:40.398Z,13.73
2022-10-15T00:06:42.665Z,13.77
2022-10-15T00:07:44.796Z,12.32
2022-10-15T00:08:48.418Z,13.35
2022-10-15T00:09:53.387Z,14.73
2022-10-15T00:10:55.742Z,16.25
2022-10-15T00:11:58.410Z,11.93
2022-10-15T00:13:00.575Z,13.98
2022-10-15T00:14:03.181Z,13.55
2022-10-15T00:15:05.802Z,18.70
2022-10-15T00:16:11.169Z,11.88
2022-10-15T00:17:13.183Z,12.55
2022-10-15T00:18:16.164Z,12.05
2022-10-15T00:19:18.247Z,12.48
2022-10-15T00:20:23.812Z,9.60
2022-10-15T00:21:28.924Z,10.88
2022-10-15T00:22:30.972Z,11.55
2022-10-15T00:23:34.003Z,14.18
2022-10-15T00:24:37.266Z,14.00
2022-10-15T00:25:42.656Z,13.23
2022-10-15T00:26:44.771Z,14.43
2022-10-15T00:27:47.446Z,9.70
2022-10-15T00:28:52.399Z,14.85
2022-10-15T00:31:07.722Z,13.60
2022-10-15T00:32:15.613Z,11.75
2022-10-15T00:33:20.326Z,13.48
2022-10-15T00:34:22.482Z,13.07
2022-10-15T00:35:24.510Z,12.90
2022-10-15T00:36:33.140Z,12.32
2022-10-15T00:37:35.323Z,10.80
2022-10-15T00:38:41.281Z,11.98
2022-10-15T00:39:45.863Z,16.15
2022-10-15T00:40:48.493Z,11.73
2022-10-15T00:41:50.513Z,13.32
2022-10-15T00:42:54.343Z,12.18
2022-10-15T00:44:29.679Z,13.73
2022-10-15T00:45:32.083Z,14.68
2022-10-15T00:46:45.671Z,14.55
2022-10-15T00:47:49.310Z,14.82
2022-10-15T00:48:58.794Z,12.32
2022-10-15T00:50:16.624Z,13.25
2022-10-15T00:51:23.511Z,13.70
2022-10-15T00:52:58.203Z,11.68
2022-10-15T00:54:00.711Z,11.73
2022-10-15T00:55:11.441Z,12.20
2022-10-15T00:56:16.250Z,13.63
2022-10-15T00:57:18.816Z,14.23
2022-10-15T00:58:29.811Z,11.73
2022-10-15T00:59:33.448Z,13.48
2022-10-15T01:00:35.834Z,14.65
2022-10-15T01:01:38.015Z,10.88
2022-10-15T01:02:40.213Z,12.57
2022-10-15T01:03:44.016Z,13.30
2022-10-15T01:04:47.033Z,11.23
2022-10-15T01:05:53.237Z,14.82
2022-10-15T01:06:56.525Z,10.88
2022-10-15T01:08:01.123Z,12.05
2022-10-15T01:09:04.179Z,12.45
2022-10-15T01:10:12.672Z,12.85
2022-10-15T01:11:26.963Z,10.75
2022-10-15T01:12:47.747Z,11.27
2022-10-15T01:14:23.050Z,11.40
2022-10-15T01:15:39.673Z,13.25
2022-10-15T01:16:50.586Z,10.82
2022-10-15T01:17:55.488Z,9.73
2022-10-15T01:19:07.638Z,14.85
2022-10-15T01:21:27.079Z,12.95
2022-10-15T01:22:52.202Z,13.93
2022-10-15T01:24:20.092Z,12.38
2022-10-15T01:25:44.815Z,11.63
2022-10-15T01:27:15.069Z,12.23
2022-10-15T01:28:19.010Z,10.82
2022-10-15T01:30:13.016Z,14.50
2022-10-15T01:31:15.392Z,12.48
2022-10-15T01:32:30.692Z,12.57
2022-10-15T01:33:37.303Z,11.20
2022-10-15T01:35:01.686Z,17.02
2022-10-15T01:36:34.181Z,14.05
2022-10-15T01:37:46.940Z,10.05
2022-10-15T01:38:58.519Z,12.57
2022-10-15T01:40:28.017Z,13.98
2022-10-15T01:41:49.468Z,12.00
2022-10-15T01:42:58.458Z,10.13
2022-10-15T01:44:32.359Z,12.13
2022-10-15T01:46:04.311Z,11.60
2022-10-15T01:47:48.443Z,9.65
2022-10-15T01:48:56.890Z,10.57
2022-10-15T01:50:03.250Z,12.27
2022-10-15T01:51:09.803Z,12.95
2022-10-15T01:52:22.493Z,13.43
2022-10-15T01:53:27.109Z,11.40
2022-10-15T01:54:32.592Z,11.30
2022-10-15T01:55:37.204Z,12.43
2022-10-15T01:56:41.200Z,12.25
2022-10-15T01:57:45.452Z,12.50
2022-10-15T01:58:57.170Z,12.30
2022-10-15T02:00:01.824Z,14.38
2022-10-15T02:01:07.091Z,13.85
2022-10-15T02:02:11.728Z,10.48
2022-10-15T02:03:15.410Z,10.15
2022-10-15T02:04:25.497Z,13.57
2022-10-15T02:05:35.510Z,12.65
2022-10-15T02:06:44.807Z,13.98
2022-10-15T02:08:10.908Z,13.32
2022-10-15T02:09:28.763Z,14.93
2022-10-15T02:10:57.165Z,11.43
2022-10-15T02:12:14.987Z,11.65
2022-10-15T02:13:44.914Z,11.52
2022-10-15T02:15:08.977Z,12.00
2022-10-15T02:16:27.609Z,12.20
2022-10-15T02:17:39.510Z,14.05
2022-10-15T02:19:18.431Z,12.10
2022-10-15T02:20:25.102Z,11.38
2022-10-15T02:21:54.579Z,9.43
2022-10-15T02:23:14.076Z,12.45
2022-10-15T02:24:25.762Z,11.73
2022-10-15T02:25:29.096Z,13.02
2022-10-15T02:26:37.065Z,13.68
2022-10-15T02:27:40.452Z,14.23
2022-10-15T02:28:48.633Z,14.52
2022-10-15T02:29:53.679Z,12.93
2022-10-15T02:30:59.530Z,16.08
2022-10-15T02:32:05.807Z,10.15
2022-10-15T02:33:08.996Z,13.73
2022-10-15T02:34:20.242Z,12.93
2022-10-15T02:35:36.334Z,11.05
2022-10-15T02:36:43.271Z,10.80
2022-10-15T02:37:49.868Z,11.50
2022-10-15T02:38:58.074Z,11.18
2022-10-15T02:40:00.125Z,11.73
2022-10-15T02:41:05.289Z,11.25
2022-10-15T02:42:07.379Z,10.25
2022-10-15T02:43:11.452Z,12.23
2022-10-15T02:44:14.780Z,10.98
2022-10-15T02:45:18.416Z,13.32
2022-10-15T02:46:21.174Z,9.80
2022-10-15T02:47:23.231Z,13.05
2022-10-15T02:48:25.617Z,12.88
2022-10-15T02:49:30.808Z,15.85
2022-10-15T02:50:32.927Z,11.27
2022-10-15T02:51:35.979Z,8.82
2022-10-15T02:52:39.770Z,12.25
2022-10-15T02:53:41.770Z,11.95
2022-10-15T02:54:48.059Z,13.82
2022-10-15T02:55:51.851Z,12.98
2022-10-15T02:56:53.891Z,14.27
2022-10-15T02:57:57.637Z,16.58
2022-10-15T02:59:00.200Z,10.82
2022-10-15T03:00:02.543Z,11.32
2022-10-15T03:01:05.773Z,10.98
2022-10-15T03:02:14.142Z,12.25
2022-10-15T03:03:19.196Z,12.13
2022-10-15T03:04:22.311Z,12.27
2022-10-15T03:06:34.105Z,12.10
2022-10-15T03:07:40.404Z,14.38
2022-10-15T03:08:50.444Z,14.40
2022-10-15T03:09:54.811Z,11.00
2022-10-15T03:11:01.731Z,12.65
2022-10-15T03:12:05.841Z,14.05
2022-10-15T03:13:08.585Z,12.68
2022-10-15T03:14:19.947Z,10.85
2022-10-15T03:15:24.671Z,11.88
2022-10-15T03:16:26.948Z,11.20
2022-10-15T03:17:33.214Z,13.27
2022-10-15T03:18:40.503Z,10.55
2022-10-15T03:19:46.664Z,9.80
2022-10-15T03:20:57.025Z,10.70
2022-10-15T03:21:59.601Z,17.15
2022-10-15T03:23:11.007Z,13.07
2022-10-15T03:24:14.602Z,11.00
2022-10-15T03:25:18.956Z,11.90
2022-10-15T03:26:23.107Z,13.57
2022-10-15T03:27:26.801Z,17.50
2022-10-15T03:28:29.598Z,14.40
2022-10-15T03:29:33.061Z,13.73
2022-10-15T03:30:42.777Z,11.10
2022-10-15T03:31:46.366Z,16.70
2022-10-15T03:32:48.684Z,15.25
2022-10-15T03:33:51.597Z,11.90
2022-10-15T03:34:57.785Z,12.88
2022-10-15T03:36:00.132Z,10.25
2022-10-15T03:37:02.526Z,13.32
2022-10-15T03:38:06.680Z,11.95
2022-10-15T03:39:09.339Z,12.57
2022-10-15T03:40:14.891Z,12.50
2022-10-15T03:41:18.707Z,14.82
2022-10-15T03:42:22.568Z,11.65
2022-10-15T03:43:26.017Z,12.32
2022-10-15T03:44:31.394Z,13.43
2022-10-15T03:45:42.850Z,14.63
2022-10-15T03:46:56.948Z,10.95
2022-10-15T03:48:04.268Z,15.80
2022-10-15T03:49:10.227Z,15.85
2022-10-15T03:50:15.266Z,13.35
2022-10-15T03:51:22.751Z,11.43
2022-10-15T03:52:40.731Z,12.07
2022-10-15T03:53:43.844Z,10.90
2022-10-15T03:54:49.653Z,11.82
2022-10-15T03:55:54.872Z,13.45
2022-10-15T03:56:57.534Z,15.02
2022-10-15T03:58:09.312Z,9.93
2022-10-15T03:59:17.238Z,12.77
2022-10-15T04:00:30.635Z,11.43
2022-10-15T04:01:36.553Z,10.20
2022-10-15T04:02:42.074Z,16.20
2022-10-15T04:03:55.167Z,11.43
2022-10-15T04:05:00.424Z,11.55
2022-10-15T04:06:03.512Z,12.48
2022-10-15T04:07:08.193Z,11.18
2022-10-15T04:08:10.415Z,14.68
2022-10-15T04:09:16.144Z,12.52
2022-10-15T04:10:18.615Z,10.93
2022-10-15T04:11:23.885Z,13.35
2022-10-15T04:12:35.957Z,10.52
2022-10-15T04:13:40.431Z,10.43
2022-10-15T04:14:43.038Z,9.15
2022-10-15T04:15:45.369Z,12.15
2022-10-15T04:16:48.467Z,12.18
2022-10-15T04:17:55.824Z,12.23
2022-10-15T04:18:59.179Z,11.55
2022-10-15T04:20:01.644Z,9.02
2022-10-15T04:21:04.362Z,12.35
2022-10-15T04:22:13.412Z,14.77
2022-10-15T04:23:22.376Z,15.18
2022-10-15T04:25:03.368Z,12.10
2022-10-15T04:26:07.488Z,11.65
2022-10-15T04:27:09.598Z,10.85
2022-10-15T04:28:12.182Z,15.18
2022-10-15T04:29:15.973Z,12.50
2022-10-15T04:30:18.257Z,12.80
2022-10-15T04:31:42.646Z,12.27
2022-10-15T04:32:45.508Z,10.07
2022-10-15T04:33:49.414Z,14.15
2022-10-15T04:34:52.202Z,12.50
2022-10-15T04:36:06.267Z,14.77
2022-10-15T04:37:23.379Z,9.82
2022-10-15T04:38:25.750Z,13.23
2022-10-15T04:39:36.474Z,11.80
2022-10-15T04:40:41.301Z,12.77
2022-10-15T04:41:44.499Z,12.68
2022-10-15T04:42:57.499Z,13.02
2022-10-15T04:44:01.303Z,14.40
2022-10-15T04:45:07.515Z,11.88
2022-10-15T04:46:10.704Z,12.30
2022-10-15T04:47:13.975Z,13.15
2022-10-15T04:48:19.442Z,9.88
2022-10-15T04:49:22.736Z,11.43
2022-10-15T04:50:25.464Z,17.13
2022-10-15T04:51:45.954Z,14.90
2022-10-15T04:52:52.199Z,12.60
2022-10-15T04:54:09.596Z,10.27
2022-10-15T04:55:21.651Z,16.00
2022-10-15T04:56:25.134Z,13.00
2022-10-15T04:57:28.064Z,14.05
2022-10-15T04:58:32.653Z,12.38
2022-10-15T04:59:34.713Z,13.35
2022-10-15T05:01:08.615Z,11.10
2022-10-15T05:02:26.403Z,14.50
2022-10-15T05:03:42.493Z,13.05
2022-10-15T05:04:47.091Z,12.23
2022-10-15T05:05:49.282Z,14.23
2022-10-15T05:06:51.764Z,13.43
2022-10-15T05:07:55.435Z,14.10
2022-10-15T05:08:57.408Z,14.88
2022-10-15T05:10:05.461Z,15.00
2022-10-15T05:11:20.858Z,17.02
2022-10-15T05:12:23.082Z,14.07
2022-10-15T05:13:25.136Z,12.63
2022-10-15T05:14:30.316Z,13.82
2022-10-15T05:15:47.118Z,14.55
2022-10-15T05:16:51.348Z,15.88
2022-10-15T05:17:53.675Z,19.02
2022-10-15T05:19:04.809Z,15.32
2022-10-15T05:20:08.155Z,11.52
2022-10-15T05:21:14.416Z,14.63
2022-10-15T05:22:18.293Z,17.25
2022-10-15T05:24:42.860Z,13.55
2022-10-15T05:26:04.309Z,14.15
2022-10-15T05:27:06.296Z,13.77
2022-10-15T05:28:09.176Z,17.67
2022-10-15T05:29:11.149Z,14.15
2022-10-15T05:30:13.762Z,16.23
2022-10-15T05:31:25.192Z,16.80
2022-10-15T05:32:37.365Z,14.73
2022-10-15T05:33:39.817Z,13.90
2022-10-15T05:34:41.946Z,14.77
2022-10-15T05:35:49.219Z,12.98
2022-10-15T05:36:51.270Z,17.63
2022-10-15T05:37:55.959Z,16.13
2022-10-15T05:39:03.160Z,18.73
2022-10-15T05:40:08.099Z,14.55
2022-10-15T05:41:10.929Z,16.10
2022-10-15T05:42:13.089Z,16.65
2022-10-15T05:43:25.909Z,16.33
2022-10-15T05:44:38.904Z,13.57
2022-10-15T05:45:41.142Z,16.92
2022-10-15T05:46:43.329Z,11.25
2022-10-15T05:47:55.370Z,15.00
2022-10-15T05:48:59.205Z,16.67
2022-10-15T05:50:05.155Z,12.32
2022-10-15T05:51:16.147Z,11.93
2022-10-15T05:52:19.444Z,16.27
2022-10-15T05:53:58.577Z,16.10
2022-10-15T05:55:02.300Z,14.35
2022-10-15T05:56:05.677Z,20.33
2022-10-15T05:57:08.358Z,15.27
2022-10-15T05:58:10.646Z,13.50
2022-10-15T05:59:13.300Z,20.08
2022-10-15T06:00:16.835Z,19.92
2022-10-15T06:01:27.472Z,16.83
2022-10-15T06:02:29.839Z,18.58
2022-10-15T06:03:32.721Z,18.02
2022-10-15T06:04:35.824Z,21.65
2022-10-15T06:05:38.376Z,16.80
2022-10-15T06:06:41.411Z,14.65
2022-10-15T06:07:44.444Z,15.88
2022-10-15T06:08:48.356Z,14.27
2022-10-15T06:09:50.594Z,16.35
2022-10-15T06:10:52.904Z,16.55
2022-10-15T06:11:54.911Z,17.80
2022-10-15T06:13:02.064Z,17.60
2022-10-15T06:14:04.195Z,18.42
2022-10-15T06:15:06.874Z,15.57
2022-10-15T06:16:09.894Z,20.58
2022-10-15T06:17:14.422Z,18.30
2022-10-15T06:18:17.602Z,20.17
2022-10-15T06:19:19.602Z,16.67
2022-10-15T06:20:22.635Z,18.17
2022-10-15T06:21:24.870Z,15.23
2022-10-15T06:22:27.078Z,17.63
2022-10-15T06:23:29.352Z,16.80
2022-10-15T06:24:31.423Z,17.85
2022-10-15T06:25:36.451Z,18.67
2022-10-15T06:26:38.454Z,25.70
2022-10-15T06:27:40.684Z,23.65
2022-10-15T06:28:42.743Z,19.52
2022-10-15T06:29:44.722Z,20.17
2022-10-15T06:30:46.802Z,18.23
2022-10-15T06:31:49.495Z,19.80
2022-10-15T06:32:53.095Z,17.40
2022-10-15T06:33:55.086Z,16.65
2022-10-15T06:34:57.217Z,19.40
2022-10-15T06:36:10.907Z,19.65
2022-10-15T06:37:13.275Z,17.98
2022-10-15T06:38:15.634Z,19.52
2022-10-15T06:39:18.401Z,14.70
2022-10-15T06:40:20.684Z,20.10
2022-10-15T06:41:23.650Z,15.77
2022-10-15T06:42:26.309Z,17.27
2022-10-15T06:43:32.642Z,24.90
2022-10-15T06:44:36.900Z,18.95
2022-10-15T06:45:42.640Z,21.98
2022-10-15T06:46:52.112Z,15.43
2022-10-15T06:47:55.217Z,14.77
2022-10-15T06:48:57.417Z,14.43
2022-10-15T06:50:00.827Z,25.45
2022-10-15T06:51:03.426Z,19.17
2022-10-15T06:52:06.197Z,22.35
2022-10-15T06:53:08.783Z,18.38
2022-10-15T06:54:12.250Z,20.45
2022-10-15T06:55:14.373Z,19.23
2022-10-15T06:56:16.552Z,17.55
2022-10-15T06:57:20.553Z,22.98
2022-10-15T06:58:22.571Z,36.60
2022-10-15T06:59:27.073Z,18.02
2022-10-15T07:01:39.865Z,32.58
2022-10-15T07:02:45.765Z,27.08
2022-10-15T07:03:54.155Z,21.02
2022-10-15T07:04:56.394Z,20.50
2022-10-15T07:06:06.102Z,19.60
2022-10-15T07:07:08.220Z,16.83
2022-10-15T07:08:10.559Z,17.20
2022-10-15T07:09:13.107Z,18.77
2022-10-15T07:10:16.262Z,16.30
2022-10-15T07:11:18.483Z,18.33
2022-10-15T07:12:22.656Z,14.07
2022-10-15T07:13:25.158Z,15.52
2022-10-15T07:14:27.050Z,16.90
2022-10-15T07:15:29.748Z,13.13
2022-10-15T07:16:31.870Z,15.02
2022-10-15T07:17:35.378Z,13.27
2022-10-15T07:18:38.220Z,15.45
2022-10-15T07:19:41.553Z,16.05
2022-10-15T07:20:43.488Z,16.45
2022-10-15T07:21:45.611Z,11.52
2022-10-15T07:22:49.256Z,13.55
2022-10-15T07:23:52.440Z,15.18
2022-10-15T07:24:54.700Z,13.63
2022-10-15T07:26:01.150Z,13.13
2022-10-15T07:27:08.324Z,10.88
2022-10-15T07:28:20.663Z,17.80
2022-10-15T07:29:25.024Z,15.48
2022-10-15T07:30:30.058Z,16.88
2022-10-15T07:31:32.303Z,15.75
2022-10-15T07:32:35.215Z,16.17
2022-10-15T07:33:37.656Z,13.20
2022-10-15T07:34:39.767Z,19.85
2022-10-15T07:35:44.456Z,16.95
2022-10-15T07:36:46.506Z,17.45
2022-10-15T07:37:50.945Z,21.00
2022-10-15T07:38:55.794Z,17.60
2022-10-15T07:39:58.370Z,20.92
2022-10-15T07:41:01.538Z,17.27
2022-10-15T07:42:07.224Z,16.63
2022-10-15T07:43:09.932Z,22.42
2022-10-15T07:44:12.401Z,19.17
2022-10-15T07:45:14.566Z,18.85
2022-10-15T07:46:16.509Z,15.23
2022-10-15T07:47:18.939Z,16.25
2022-10-15T07:48:21.152Z,15.57
2022-10-15T07:49:23.382Z,18.02
2022-10-15T07:50:28.126Z,18.92
2022-10-15T07:51:35.799Z,19.48
2022-10-15T07:52:38.271Z,16.65
2022-10-15T07:53:40.633Z,18.73
2022-10-15T07:54:42.762Z,11.98
2022-10-15T07:55:50.353Z,10.38
2022-10-15T07:56:52.411Z,15.38
2022-10-15T07:58:00.507Z,15.13
2022-10-15T07:59:02.960Z,17.63
2022-10-15T08:00:06.714Z,23.10
2022-10-15T08:01:14.589Z,25.88
2022-10-15T08:02:18.663Z,20.83
2022-10-15T08:03:21.226Z,12.90
2022-10-15T08:04:23.348Z,14.23
2022-10-15T08:05:25.300Z,17.95
2022-10-15T08:06:27.552Z,15.85
2022-10-15T08:07:29.690Z,14.27
2022-10-15T08:08:33.032Z,10.75
2022-10-15T08:09:35.613Z,13.63
2022-10-15T08:10:37.765Z,13.00
2022-10-15T08:11:39.740Z,20.20
2022-10-15T08:12:45.148Z,14.52
2022-10-15T08:13:50.187Z,15.52
2022-10-15T08:14:52.194Z,18.35
2022-10-15T08:15:57.874Z,20.00
2022-10-15T08:17:03.924Z,18.60
2022-10-15T08:18:06.027Z,15.15
2022-10-15T08:19:08.088Z,10.98
2022-10-15T08:20:11.172Z,14.10
2022-10-15T08:21:13.776Z,13.02
2022-10-15T08:22:16.983Z,13.15
2022-10-15T08:23:19.165Z,11.18
2022-10-15T08:24:21.485Z,9.50
2022-10-15T08:25:23.749Z,10.60
2022-10-15T08:26:26.793Z,12.70
2022-10-15T08:27:28.932Z,14.40
2022-10-15T08:28:34.732Z,19.05
2022-10-15T08:29:40.281Z,16.08
2022-10-15T08:30:45.812Z,12.40
2022-10-15T08:31:51.890Z,11.57
2022-10-15T08:32:58.695Z,14.15
2022-10-15T08:34:02.202Z,15.60
2022-10-15T08:35:06.494Z,10.93
2022-10-15T08:36:08.911Z,14.65
2022-10-15T08:37:12.279Z,13.25
2022-10-15T08:38:17.492Z,13.18
2022-10-15T08:39:21.851Z,12.65
2022-10-15T08:40:23.960Z,11.90
2022-10-15T08:41:41.106Z,19.17
2022-10-15T08:42:46.203Z,14.93
2022-10-15T08:43:51.723Z,12.80
2022-10-15T08:45:02.120Z,14.85
2022-10-15T08:46:12.793Z,12.00
2022-10-15T08:47:45.232Z,18.08
2022-10-15T08:48:56.807Z,12.95
2022-10-15T08:50:01.389Z,13.68
2022-10-15T08:51:28.647Z,17.38
2022-10-15T08:52:36.876Z,14.32
2022-10-15T08:53:52.971Z,17.25
2022-10-15T08:54:56.844Z,14.60
2022-10-15T08:56:13.755Z,13.93
2022-10-15T08:57:37.580Z,14.02
2022-10-15T08:58:55.180Z,23.42
2022-10-15T09:00:22.713Z,14.68
2022-10-15T09:01:50.566Z,11.35
2022-10-15T09:03:05.617Z,20.95
2022-10-15T09:04:19.788Z,17.95
2022-10-15T09:05:43.129Z,19.58
2022-10-15T09:06:47.227Z,15.90
2022-10-15T09:08:21.673Z,12.15
2022-10-15T09:09:41.203Z,18.17
2022-10-15T09:10:53.772Z,18.63
2022-10-15T09:12:17.509Z,16.75
2022-10-15T09:13:31.130Z,15.68
2022-10-15T09:14:41.553Z,18.70
2022-10-15T09:15:54.094Z,15.80
2022-10-15T09:17:26.225Z,16.13
2022-10-15T09:18:45.164Z,17.27
2022-10-15T09:20:05.983Z,19.90
2022-10-15T09:21:09.949Z,19.05
2022-10-15T09:22:18.559Z,22.05
2022-10-15T09:23:28.632Z,16.27
2022-10-15T09:24:31.345Z,41.50
2022-10-15T09:25:37.070Z,23.63
2022-10-15T09:26:52.032Z,16.90
2022-10-15T09:27:54.519Z,18.13
2022-10-15T09:29:22.386Z,17.42
2022-10-15T09:30:47.734Z,20.15
2022-10-15T09:32:10.707Z,20.63
2022-10-15T09:33:45.861Z,16.92
2022-10-15T09:35:00.932Z,14.75
2022-10-15T09:36:27.624Z,20.10
2022-10-15T09:37:48.127Z,14.52
2022-10-15T09:38:55.944Z,19.58
2022-10-15T09:40:23.216Z,20.35
2022-10-15T09:41:56.590Z,20.17
2022-10-15T09:43:00.324Z,19.10
2022-10-15T09:44:05.660Z,16.85
2022-10-15T09:45:15.584Z,17.05
2022-10-15T09:46:18.363Z,18.83
2022-10-15T09:47:37.322Z,18.17
2022-10-15T09:48:51.658Z,20.42
2022-10-15T09:49:53.706Z,23.70
2022-10-15T09:51:24.117Z,15.75
2022-10-15T09:53:06.123Z,19.10
2022-10-15T09:54:30.137Z,17.00
2022-10-15T09:55:52.226Z,16.35
2022-10-15T09:57:00.194Z,22.73
2022-10-15T09:58:10.646Z,18.73
2022-10-15T09:59:39.397Z,15.77
2022-10-15T10:00:57.377Z,15.80
2022-10-15T10:02:14.037Z,18.85
2022-10-15T10:03:17.251Z,14.10
2022-10-15T10:04:22.237Z,17.80
2022-10-15T10:05:32.787Z,15.38
2022-10-15T10:06:48.004Z,15.15
2022-10-15T10:07:50.612Z,13.50
2022-10-15T10:08:56.391Z,13.15
2022-10-15T10:10:07.450Z,17.58
2022-10-15T10:11:13.023Z,16.08
2022-10-15T10:12:29.083Z,18.02
2022-10-15T10:13:34.370Z,13.68
2022-10-15T10:14:43.139Z,16.95
2022-10-15T10:15:46.364Z,15.77
2022-10-15T10:17:17.479Z,23.58
2022-10-15T10:18:23.180Z,18.48
2022-10-15T10:19:25.200Z,17.45
2022-10-15T10:20:32.729Z,21.95
2022-10-15T10:21:39.490Z,17.60
2022-10-15T10:22:51.271Z,22.27
2022-10-15T10:23:54.222Z,20.75
2022-10-15T10:24:56.401Z,17.98
2022-10-15T10:26:00.107Z,17.63
2022-10-15T10:28:16.877Z,21.40
2022-10-15T10:29:36.550Z,13.95
2022-10-15T10:30:48.264Z,16.98
2022-10-15T10:31:52.456Z,19.13
2022-10-15T10:33:06.492Z,18.98
2022-10-15T10:34:16.297Z,21.90
2022-10-15T10:35:23.060Z,23.05
2022-10-15T10:36:34.052Z,16.27
2022-10-15T10:37:44.046Z,18.92
2022-10-15T10:39:25.885Z,17.55
2022-10-15T10:40:36.976Z,17.75
2022-10-15T10:42:09.703Z,26.10
2022-10-15T10:43:17.578Z,18.63
2022-10-15T10:44:30.790Z,20.13
2022-10-15T10:45:35.082Z,21.13
2022-10-15T10:46:37.196Z,25.05
2022-10-15T10:47:40.646Z,21.55
2022-10-15T10:48:52.128Z,23.33
2022-10-15T10:49:56.702Z,24.95
2022-10-15T10:51:16.857Z,21.92
2022-10-15T10:52:40.582Z,22.65
2022-10-15T10:54:35.794Z,26.75
2022-10-15T10:56:44.417Z,24.48
2022-10-15T10:58:08.566Z,25.45
2022-10-15T10:59:46.298Z,23.42
2022-10-15T11:01:51.484Z,26.48
2022-10-15T11:03:22.950Z,27.08
2022-10-15T11:05:48.879Z,22.58
2022-10-15T11:07:50.849Z,26.15
2022-10-15T11:11:47.317Z,29.80
2022-10-15T11:13:08.488Z,28.52
2022-10-15T11:18:05.830Z,27.38
2022-10-15T11:19:59.601Z,23.25
2022-10-15T11:21:07.214Z,21.73
2022-10-15T11:22:24.369Z,25.38
2022-10-15T11:24:05.318Z,22.83
2022-10-15T11:25:28.583Z,24.20
2022-10-15T11:26:41.691Z,24.77
2022-10-15T11:28:05.578Z,17.80
2022-10-15T11:29:36.415Z,18.48
2022-10-15T11:33:01.837Z,28.30
2022-10-15T11:34:03.743Z,21.60
2022-10-15T11:35:48.268Z,21.90
2022-10-15T11:37:23.408Z,20.90
2022-10-15T11:38:39.149Z,23.13
2022-10-15T11:39:54.866Z,35.80
2022-10-15T11:41:36.582Z,25.30
2022-10-15T11:42:57.398Z,24.33
2022-10-15T11:44:31.001Z,19.63
2022-10-15T11:45:52.758Z,23.85
2022-10-15T11:47:03.862Z,29.80
2022-10-15T11:48:23.009Z,20.50
2022-10-15T11:49:59.480Z,22.42
2022-10-15T11:51:23.581Z,26.13
2022-10-15T11:52:45.298Z,21.98
2022-10-15T11:53:57.855Z,19.13
2022-10-15T11:55:08.116Z,19.75
2022-10-15T11:57:00.610Z,20.00
2022-10-15T12:00:18.285Z,21.60
2022-10-15T12:01:29.524Z,19.58
2022-10-15T12:02:38.484Z,21.90
2022-10-15T12:05:01.469Z,24.88
2022-10-15T12:08:26.257Z,20.10
2022-10-15T12:09:36.990Z,20.70
2022-10-15T12:11:10.069Z,18.98
2022-10-15T12:12:31.073Z,22.15
2022-10-15T12:13:48.665Z,17.75
2022-10-15T12:15:40.832Z,17.63
2022-10-15T12:17:20.653Z,16.52
2022-10-15T12:18:29.160Z,16.38
2022-10-15T12:19:50.393Z,20.60
2022-10-15T12:20:55.839Z,17.42
2022-10-15T12:22:07.069Z,17.75
2022-10-15T12:23:40.787Z,20.20
2022-10-15T12:24:50.420Z,23.17
2022-10-15T12:25:53.110Z,25.35
2022-10-15T12:26:55.372Z,21.33
2022-10-15T12:28:02.603Z,17.42
2022-10-15T12:29:07.411Z,21.83
2022-10-15T12:30:13.841Z,23.98
2022-10-15T12:31:20.380Z,19.20
2022-10-15T12:32:36.423Z,23.98
2022-10-15T12:33:48.232Z,22.38
2022-10-15T12:35:02.317Z,19.25
2022-10-15T12:36:30.556Z,24.42
2022-10-15T12:37:36.353Z,24.30
2022-10-15T12:38:43.913Z,20.25
2022-10-15T12:39:52.668Z,20.60
2022-10-15T12:41:20.425Z,25.52
2022-10-15T12:42:33.484Z,25.60
2022-10-15T12:43:41.295Z,24.67
2022-10-15T12:44:50.034Z,24.98
2022-10-15T12:46:02.840Z,25.60
2022-10-15T12:47:06.731Z,41.10
2022-10-15T12:48:08.988Z,30.75
2022-10-15T12:49:35.426Z,33.05
2022-10-15T12:50:37.649Z,22.40
2022-10-15T12:51:41.577Z,22.48
2022-10-15T12:53:00.406Z,24.88
2022-10-15T12:54:33.305Z,23.60
2022-10-15T12:55:38.231Z,18.67
2022-10-15T12:56:41.983Z,20.73
2022-10-15T12:57:46.929Z,21.45
2022-10-15T12:58:56.213Z,18.38
2022-10-15T13:00:01.813Z,18.60
2022-10-15T13:01:23.969Z,19.40
2022-10-15T13:02:50.214Z,18.23
2022-10-15T13:04:02.499Z,22.83
2022-10-15T13:05:19.342Z,20.35
2022-10-15T13:06:22.565Z,23.15
2022-10-15T13:07:28.302Z,23.10
2022-10-15T13:08:32.055Z,25.48
2022-10-15T13:15:31.400Z,21.95
2022-10-15T13:21:12.973Z,20.17
2022-10-15T13:22:36.408Z,21.50
2022-10-15T13:23:49.957Z,21.52
2022-10-15T13:24:56.262Z,18.55
2022-10-15T13:26:19.364Z,19.38
2022-10-15T13:27:37.434Z,16.05
2022-10-15T13:28:45.245Z,21.25
2022-10-15T13:30:05.495Z,22.42
2022-10-15T13:31:45.353Z,18.10
2022-10-15T13:32:53.027Z,18.10
2022-10-15T13:34:13.846Z,21.55
2022-10-15T13:35:29.495Z,22.55
2022-10-15T13:36:35.446Z,17.45
2022-10-15T13:37:46.229Z,18.38
2022-10-15T13:38:55.639Z,17.05
2022-10-15T13:40:03.087Z,20.67
2022-10-15T13:41:09.886Z,17.67
2022-10-15T13:42:17.327Z,19.55
2022-10-15T13:43:22.899Z,17.02
2022-10-15T13:44:25.886Z,22.40
2022-10-15T13:45:29.743Z,19.15
2022-10-15T13:46:38.224Z,16.95
2022-10-15T13:47:43.371Z,21.48
2022-10-15T13:48:46.066Z,17.08
2022-10-15T13:49:52.120Z,22.50
2022-10-15T13:51:06.054Z,20.60
2022-10-15T13:52:10.513Z,22.83
2022-10-15T13:53:29.953Z,16.40
2022-10-15T13:54:33.222Z,21.75
2022-10-15T13:55:44.652Z,17.77
2022-10-15T13:57:02.307Z,18.02
2022-10-15T13:58:14.600Z,16.50
2022-10-15T13:59:20.470Z,16.33
2022-10-15T14:00:38.066Z,15.65
2022-10-15T14:01:48.364Z,15.07
2022-10-15T14:03:22.428Z,15.55
2022-10-15T14:04:24.956Z,16.52
2022-10-15T14:05:27.777Z,17.80
2022-10-15T14:06:38.366Z,16.77
2022-10-15T14:07:40.921Z,15.15
2022-10-15T14:08:43.161Z,18.88
2022-10-15T14:09:49.163Z,18.80
2022-10-15T14:10:55.542Z,18.67
2022-10-15T14:12:02.252Z,22.02
2022-10-15T14:13:08.789Z,21.00
2022-10-15T14:14:41.846Z,19.70
2022-10-15T14:15:52.389Z,22.25
2022-10-15T14:17:02.004Z,24.42
2022-10-15T14:18:04.611Z,17.75
2022-10-15T14:19:07.699Z,19.52
2022-10-15T14:20:27.222Z,20.77
2022-10-15T14:21:32.859Z,20.92
2022-10-15T14:22:44.785Z,22.00
2022-10-15T14:23:49.216Z,16.48
2022-10-15T14:24:56.975Z,20.40
2022-10-15T14:26:02.763Z,20.30
2022-10-15T14:27:16.225Z,26.75
2022-10-15T14:28:22.338Z,19.90
2022-10-15T14:29:35.910Z,19.25
2022-10-15T14:30:39.612Z,34.42
2022-10-15T14:31:48.504Z,33.35
2022-10-15T14:32:56.939Z,30.88
2022-10-15T14:34:03.393Z,24.08
2022-10-15T14:35:10.785Z,24.08
2022-10-15T14:36:26.756Z,19.73
2022-10-15T14:37:45.562Z,20.17
2022-10-15T14:38:51.450Z,20.92
2022-10-15T14:40:11.273Z,17.45
2022-10-15T14:41:35.078Z,18.75
2022-10-15T14:43:06.697Z,25.77
2022-10-15T14:44:11.642Z,19.67
2022-10-15T14:45:42.383Z,20.80
2022-10-15T14:47:08.691Z,19.10
2022-10-15T14:48:39.682Z,18.65
2022-10-15T14:49:49.271Z,28.10
2022-10-15T14:50:58.244Z,21.58
2022-10-15T14:52:21.410Z,21.77
2022-10-15T14:53:48.243Z,23.60
2022-10-15T14:56:01.067Z,17.48
2022-10-15T14:57:24.541Z,55.53
2022-10-15T14:58:31.078Z,45.25
2022-10-15T14:59:38.127Z,37.08
2022-10-15T15:00:55.163Z,24.38
2022-10-15T15:02:06.470Z,21.70
2022-10-15T15:03:17.869Z,28.65
2022-10-15T15:05:14.592Z,23.13
2022-10-15T15:06:34.989Z,22.50
2022-10-15T15:07:41.302Z,20.02
2022-10-15T15:08:46.522Z,27.42
2022-10-15T15:09:52.090Z,19.50
2022-10-15T15:11:00.325Z,19.20
2022-10-15T15:12:07.701Z,24.77
2022-10-15T15:13:22.327Z,24.77
2022-10-15T15:14:40.425Z,20.70
2022-10-15T15:15:44.084Z,27.48
2022-10-15T15:16:49.060Z,101.03
2022-10-15T15:17:54.046Z,53.33
2022-10-15T15:18:58.743Z,58.92
2022-10-15T15:20:01.367Z,76.35
2022-10-15T15:21:08.167Z,179.85
2022-10-15T15:22:16.897Z,198.93
2022-10-15T15:23:25.453Z,126.68
2022-10-15T15:24:27.753Z,93.00
2022-10-15T15:25:31.500Z,38.08
2022-10-15T15:26:33.525Z,28.35
2022-10-15T15:27:37.842Z,51.00
2022-10-15T15:28:40.117Z,40.53
2022-10-15T15:29:43.124Z,48.60
2022-10-15T15:30:45.531Z,34.65
2022-10-15T15:31:48.187Z,36.42
2022-10-15T15:32:50.559Z,41.58
2022-10-15T15:33:52.718Z,40.92
2022-10-15T15:34:58.893Z,38.78